createdAt,value
2018-06-16T00:00:00.294Z,76.94
2018-06-16T00:01:00.171Z,76.79
2018-06-16T00:02:00.205Z,76.98
2018-06-16T00:03:00.118Z,77.17
2018-06-16T00:04:00.221Z,77.04
2018-06-16T00:05:00.078Z,77.04
2018-06-16T00:06:00.129Z,77.33
2018-06-16T00:07:00.059Z,77.23
2018-06-16T00:08:00.040Z,77.13
2018-06-16T00:08:59.992Z,76.94
2018-06-16T00:10:00.061Z,76.94
2018-06-16T00:10:59.951Z,77.23
2018-06-16T00:11:59.967Z,77.23
2018-06-16T00:12:59.904Z,77.04
2018-06-16T00:13:59.980Z,76.88
2018-06-16T00:14:59.865Z,77.51
2018-06-16T00:15:59.893Z,77.84
2018-06-16T00:16:59.821Z,76.88
2018-06-16T00:17:59.906Z,77.61
2018-06-16T00:18:59.779Z,77.61
2018-06-16T00:19:59.817Z,77.61
2018-06-16T00:20:59.737Z,77.90
2018-06-16T00:21:59.831Z,78.19
2018-06-16T00:22:59.693Z,78.00
2018-06-16T00:23:59.743Z,78.00
2018-06-16T00:24:59.650Z,78.00
2018-06-16T00:25:59.763Z,77.71
2018-06-16T00:26:59.607Z,78.47
2018-06-16T00:27:59.669Z,78.57
2018-06-16T00:28:59.565Z,78.38
2018-06-16T00:29:59.682Z,78.38
2018-06-16T00:30:59.524Z,78.67
2018-06-16T00:31:59.595Z,78.86
2018-06-16T00:32:59.478Z,78.57
2018-06-16T00:33:59.609Z,78.96
2018-06-16T00:34:59.439Z,79.44
2018-06-16T00:35:59.520Z,78.86
2018-06-16T00:36:59.393Z,78.96
2018-06-16T00:37:59.437Z,78.96
2018-06-16T00:38:59.354Z,78.86
2018-06-16T00:39:59.451Z,78.67
2018-06-16T00:40:59.310Z,78.86
2018-06-16T00:41:59.358Z,78.28
2018-06-16T00:42:59.267Z,79.05
2018-06-16T00:43:59.372Z,79.05
2018-06-16T00:44:59.228Z,79.14
2018-06-16T00:45:59.283Z,79.24
2018-06-16T00:46:59.182Z,78.96
2018-06-16T00:47:59.297Z,79.14
2018-06-16T00:48:59.139Z,78.96
2018-06-16T00:49:59.208Z,78.47
2018-06-16T00:50:59.101Z,78.86
2018-06-16T00:51:59.226Z,79.05
2018-06-16T00:52:59.116Z,79.44
2018-06-16T00:53:59.137Z,79.05
2018-06-16T00:54:59.006Z,79.24
2018-06-16T00:55:59.148Z,79.34
2018-06-16T00:56:58.969Z,79.34
2018-06-16T00:57:59.066Z,79.14
2018-06-16T00:58:58.927Z,79.44
2018-06-16T00:59:59.076Z,80.01
2018-06-16T01:00:58.884Z,80.01
2018-06-16T01:01:58.989Z,79.63
2018-06-16T01:02:58.842Z,79.34
2018-06-16T01:03:58.902Z,80.01
2018-06-16T01:04:58.799Z,80.01
2018-06-16T01:05:58.912Z,80.11
2018-06-16T01:06:58.756Z,79.72
2018-06-16T01:07:58.826Z,80.30
2018-06-16T01:08:58.711Z,80.11
2018-06-16T01:09:58.841Z,80.97
2018-06-16T01:10:58.669Z,80.68
2018-06-16T01:11:58.751Z,80.49
2018-06-16T01:12:58.629Z,80.97
2018-06-16T01:13:58.769Z,80.40
2018-06-16T01:14:58.584Z,80.49
2018-06-16T01:15:58.679Z,81.26
2018-06-16T01:16:58.545Z,81.07
2018-06-16T01:17:58.692Z,80.97
2018-06-16T01:18:58.512Z,81.16
2018-06-16T01:19:58.603Z,80.87
2018-06-16T01:20:58.456Z,81.35
2018-06-16T01:21:58.617Z,81.35
2018-06-16T01:22:58.415Z,81.64
2018-06-16T01:23:58.530Z,81.84
2018-06-16T01:24:58.371Z,81.45
2018-06-16T01:25:58.443Z,82.03
2018-06-16T01:26:58.339Z,81.74
2018-06-16T01:27:58.458Z,82.03
2018-06-16T01:28:58.286Z,81.74
2018-06-16T01:29:58.368Z,81.84
2018-06-16T01:30:58.242Z,81.74
2018-06-16T01:31:58.383Z,82.03
2018-06-16T01:32:58.199Z,81.84
2018-06-16T01:33:58.293Z,82.41
2018-06-16T01:34:58.158Z,82.41
2018-06-16T01:35:58.309Z,82.31
2018-06-16T01:36:58.113Z,82.41
2018-06-16T01:37:58.219Z,82.70
2018-06-16T01:38:58.069Z,82.21
2018-06-16T01:39:58.233Z,82.21
2018-06-16T01:40:58.027Z,82.21
2018-06-16T01:41:58.144Z,82.70
2018-06-16T01:42:57.985Z,82.89
2018-06-16T01:43:58.160Z,82.89
2018-06-16T01:44:57.943Z,82.89
2018-06-16T01:45:58.071Z,83.08
2018-06-16T01:46:57.902Z,82.89
2018-06-16T01:47:58.085Z,83.85
2018-06-16T01:48:57.860Z,83.65
2018-06-16T01:49:57.997Z,83.47
2018-06-16T01:50:57.809Z,83.47
2018-06-16T01:51:57.909Z,83.75
2018-06-16T01:52:57.770Z,83.85
2018-06-16T01:53:57.922Z,83.94
2018-06-16T01:54:57.731Z,83.56
2018-06-16T01:55:57.836Z,84.23
2018-06-16T01:56:57.681Z,84.42
2018-06-16T01:57:57.854Z,84.33
2018-06-16T01:58:57.639Z,84.04
2018-06-16T01:59:57.760Z,84.91
2018-06-16T02:00:57.593Z,84.52
2018-06-16T02:01:57.673Z,84.33
2018-06-16T02:02:57.554Z,84.33
2018-06-16T02:03:57.588Z,85.00
2018-06-16T02:04:57.509Z,85.10
2018-06-16T02:05:57.602Z,84.71
2018-06-16T02:06:57.470Z,84.81
2018-06-16T02:07:57.509Z,85.19
2018-06-16T02:08:57.423Z,85.19
2018-06-16T02:09:57.523Z,85.28
2018-06-16T02:10:57.383Z,85.38
2018-06-16T02:11:57.435Z,85.67
2018-06-16T02:12:57.335Z,85.53
2018-06-16T02:13:57.351Z,85.58
2018-06-16T02:14:57.296Z,85.92
2018-06-16T02:15:57.364Z,86.01
2018-06-16T02:16:57.249Z,85.92
2018-06-16T02:17:57.275Z,86.49
2018-06-16T02:18:57.209Z,86.40
2018-06-16T02:19:57.290Z,85.82
2018-06-16T02:20:57.163Z,86.40
2018-06-16T02:21:57.321Z,86.40
2018-06-16T02:22:57.125Z,86.88
2018-06-16T02:23:57.212Z,87.16
2018-06-16T02:24:57.080Z,87.26
2018-06-16T02:25:57.132Z,86.40
2018-06-16T02:26:57.043Z,87.74
2018-06-16T02:27:57.139Z,87.45
2018-06-16T02:28:56.988Z,87.45
2018-06-16T02:29:57.052Z,87.64
2018-06-16T02:30:56.947Z,87.64
2018-06-16T02:31:57.067Z,87.84
2018-06-16T02:32:56.902Z,88.31
2018-06-16T02:33:56.977Z,88.79
2018-06-16T02:34:56.860Z,88.22
2018-06-16T02:35:56.893Z,88.51
2018-06-16T02:36:56.820Z,88.70
2018-06-16T02:37:56.905Z,89.27
2018-06-16T02:38:56.776Z,89.56
2018-06-16T02:39:56.815Z,89.56
2018-06-16T02:40:56.732Z,89.56
2018-06-16T02:41:56.832Z,89.85
2018-06-16T02:42:56.686Z,89.75
2018-06-16T02:43:56.741Z,89.37
2018-06-16T02:44:56.642Z,89.61
2018-06-16T02:45:56.756Z,89.90
2018-06-16T02:46:56.616Z,90.14
2018-06-16T02:47:56.669Z,90.76
2018-06-16T02:48:56.553Z,90.38
2018-06-16T02:49:56.682Z,90.67
2018-06-16T02:50:56.512Z,90.61
2018-06-16T02:51:56.594Z,90.90
2018-06-16T02:52:56.467Z,91.00
2018-06-16T02:53:56.608Z,91.67
2018-06-16T02:54:56.432Z,91.34
2018-06-16T02:55:56.520Z,91.34
2018-06-16T02:56:56.380Z,91.82
2018-06-16T02:57:56.436Z,92.10
2018-06-16T02:58:56.338Z,92.24
2018-06-16T02:59:56.447Z,91.91
2018-06-16T03:00:56.293Z,92.24
2018-06-16T03:01:56.358Z,93.06
2018-06-16T03:02:56.248Z,92.87
2018-06-16T03:03:56.373Z,93.11
2018-06-16T03:04:56.212Z,92.87
2018-06-16T03:05:56.286Z,93.49
2018-06-16T03:06:56.163Z,93.44
2018-06-16T03:07:56.296Z,93.73
2018-06-16T03:08:56.122Z,93.83
2018-06-16T03:09:56.208Z,93.83
2018-06-16T03:10:56.076Z,93.73
2018-06-16T03:11:56.224Z,93.73
2018-06-16T03:12:56.034Z,94.02
2018-06-16T03:13:56.136Z,94.26
2018-06-16T03:14:55.992Z,94.31
2018-06-16T03:15:56.049Z,94.79
2018-06-16T03:16:55.944Z,94.69
2018-06-16T03:17:56.061Z,95.46
2018-06-16T03:18:55.899Z,95.07
2018-06-16T03:19:55.975Z,95.26
2018-06-16T03:20:55.861Z,95.36
2018-06-16T03:21:55.987Z,95.26
2018-06-16T03:22:55.811Z,95.56
2018-06-16T03:23:55.899Z,95.26
2018-06-16T03:24:55.769Z,95.46
2018-06-16T03:25:55.913Z,94.89
2018-06-16T03:26:55.724Z,94.69
2018-06-16T03:27:55.826Z,95.26
2018-06-16T03:28:55.679Z,95.07
2018-06-16T03:29:55.838Z,95.26
2018-06-16T03:30:55.637Z,95.94
2018-06-16T03:31:55.754Z,95.26
2018-06-16T03:32:55.590Z,95.07
2018-06-16T03:33:55.765Z,95.26
2018-06-16T03:34:55.547Z,95.46
2018-06-16T03:35:55.678Z,95.46
2018-06-16T03:36:55.508Z,95.26
2018-06-16T03:37:55.589Z,95.26
2018-06-16T03:38:55.460Z,95.84
2018-06-16T03:39:55.601Z,96.03
2018-06-16T03:40:55.418Z,96.32
2018-06-16T03:41:55.515Z,96.51
2018-06-16T03:42:55.372Z,96.03
2018-06-16T03:43:55.527Z,96.99
2018-06-16T03:44:55.331Z,96.70
2018-06-16T03:45:55.439Z,96.80
2018-06-16T03:46:55.287Z,97.09
2018-06-16T03:47:55.454Z,96.99
2018-06-16T03:48:55.239Z,97.28
2018-06-16T03:49:55.370Z,97.18
2018-06-16T03:50:55.196Z,97.85
2018-06-16T03:51:55.381Z,97.66
2018-06-16T03:52:55.152Z,97.38
2018-06-16T03:53:55.293Z,98.05
2018-06-16T03:54:55.108Z,98.14
2018-06-16T03:55:55.203Z,97.95
2018-06-16T03:56:55.064Z,97.95
2018-06-16T03:57:55.223Z,98.05
2018-06-16T03:58:55.024Z,97.95
2018-06-16T03:59:55.152Z,98.62
2018-06-16T04:00:54.969Z,98.52
2018-06-16T04:01:55.197Z,98.62
2018-06-16T04:02:54.939Z,98.43
2018-06-16T04:03:54.955Z,98.81
2018-06-16T04:04:54.889Z,98.24
2018-06-16T04:05:54.972Z,98.24
2018-06-16T04:06:54.847Z,98.62
2018-06-16T04:07:54.879Z,98.62
2018-06-16T04:08:54.798Z,98.81
2018-06-16T04:09:54.896Z,99.19
2018-06-16T04:10:54.756Z,99.19
2018-06-16T04:11:54.807Z,98.91
2018-06-16T04:12:54.714Z,99.10
2018-06-16T04:13:54.819Z,99.48
2018-06-16T04:14:54.668Z,99.01
2018-06-16T04:15:54.733Z,99.58
2018-06-16T04:16:54.626Z,99.39
2018-06-16T04:17:54.648Z,99.39
2018-06-16T04:18:54.585Z,99.99
2018-06-16T04:19:54.660Z,99.48
2018-06-16T04:20:54.535Z,99.48
2018-06-16T04:21:54.569Z,99.77
2018-06-16T04:22:54.492Z,99.48
2018-06-16T04:23:54.631Z,99.87
2018-06-16T04:24:54.447Z,99.87
2018-06-16T04:25:54.495Z,99.99
2018-06-16T04:26:54.406Z,99.77
2018-06-16T04:27:54.509Z,99.77
2018-06-16T04:28:54.361Z,99.58
2018-06-16T04:29:54.419Z,99.99
2018-06-16T04:30:54.325Z,99.87
2018-06-16T04:31:54.480Z,99.77
2018-06-16T04:32:54.270Z,99.96
2018-06-16T04:33:54.352Z,99.99
2018-06-16T04:34:54.311Z,99.99
2018-06-16T04:35:54.257Z,99.96
2018-06-16T04:36:54.183Z,99.99
2018-06-16T04:37:54.276Z,99.96
2018-06-16T04:38:54.138Z,99.96
2018-06-16T04:39:54.192Z,99.99
2018-06-16T04:40:54.093Z,99.96
2018-06-16T04:41:54.200Z,99.96
2018-06-16T04:42:54.043Z,99.77
2018-06-16T04:43:54.113Z,99.58
2018-06-16T04:44:54.006Z,99.48
2018-06-16T04:45:54.126Z,99.96
2018-06-16T04:46:53.968Z,99.58
2018-06-16T04:47:54.037Z,99.77
2018-06-16T04:48:53.920Z,99.99
2018-06-16T04:49:54.052Z,99.87
2018-06-16T04:50:53.876Z,99.77
2018-06-16T04:51:53.963Z,99.96
2018-06-16T04:52:53.827Z,99.48
2018-06-16T04:53:53.923Z,99.73
2018-06-16T04:54:53.787Z,99.73
2018-06-16T04:55:53.888Z,99.05
2018-06-16T04:56:53.756Z,98.81
2018-06-16T04:57:53.799Z,99.19
2018-06-16T04:58:53.697Z,99.63
2018-06-16T04:59:53.816Z,99.24
2018-06-16T05:00:53.652Z,99.44
2018-06-16T05:01:53.729Z,99.99
2018-06-16T05:02:53.612Z,99.82
2018-06-16T05:03:53.741Z,99.05
2018-06-16T05:04:53.562Z,99.63
2018-06-16T05:05:53.652Z,99.68
2018-06-16T05:06:53.523Z,99.82
2018-06-16T05:07:53.668Z,99.77
2018-06-16T05:08:53.482Z,99.73
2018-06-16T05:09:53.579Z,99.99
2018-06-16T05:10:53.436Z,99.53
2018-06-16T05:11:53.494Z,99.63
2018-06-16T05:12:53.394Z,99.82
2018-06-16T05:13:53.503Z,99.99
2018-06-16T05:14:53.349Z,99.99
2018-06-16T05:15:53.414Z,99.99
2018-06-16T05:16:53.310Z,99.99
2018-06-16T05:17:53.430Z,99.99
2018-06-16T05:18:53.260Z,99.99
2018-06-16T05:19:53.349Z,99.99
2018-06-16T05:20:53.215Z,99.99
2018-06-16T05:21:53.402Z,99.99
2018-06-16T05:22:53.174Z,99.99
2018-06-16T05:23:53.270Z,99.99
2018-06-16T05:24:53.130Z,99.99
2018-06-16T05:25:53.282Z,99.99
2018-06-16T05:26:53.083Z,99.99
2018-06-16T05:27:53.193Z,99.99
2018-06-16T05:28:53.039Z,99.99
2018-06-16T05:29:53.210Z,99.99
2018-06-16T05:30:52.996Z,99.99
2018-06-16T05:31:53.118Z,99.99
2018-06-16T05:32:52.953Z,99.99
2018-06-16T05:33:53.029Z,99.99
2018-06-16T05:34:52.909Z,99.34
2018-06-16T05:35:53.048Z,99.73
2018-06-16T05:36:52.864Z,99.53
2018-06-16T05:37:52.956Z,99.73
2018-06-16T05:38:52.822Z,99.53
2018-06-16T05:39:52.969Z,99.49
2018-06-16T05:40:52.778Z,99.20
2018-06-16T05:41:52.881Z,98.43
2018-06-16T05:42:52.736Z,98.72
2018-06-16T05:43:52.896Z,98.33
2018-06-16T05:44:52.692Z,97.95
2018-06-16T05:45:52.809Z,97.47
2018-06-16T05:46:52.649Z,97.66
2018-06-16T05:47:52.822Z,97.28
2018-06-16T05:48:52.604Z,97.66
2018-06-16T05:49:52.738Z,97.09
2018-06-16T05:50:52.558Z,97.56
2018-06-16T05:51:52.747Z,97.47
2018-06-16T05:52:52.516Z,98.05
2018-06-16T05:53:52.677Z,97.28
2018-06-16T05:54:52.471Z,97.38
2018-06-16T05:55:52.575Z,97.42
2018-06-16T05:56:52.433Z,97.14
2018-06-16T05:57:52.588Z,96.85
2018-06-16T05:58:52.384Z,96.75
2018-06-16T05:59:52.499Z,96.94
2018-06-16T06:00:52.345Z,96.37
2018-06-16T06:01:52.514Z,95.98
2018-06-16T06:02:52.308Z,95.60
2018-06-16T06:03:52.423Z,95.03
2018-06-16T06:04:52.260Z,94.88
2018-06-16T06:05:52.338Z,95.03
2018-06-16T06:06:52.216Z,94.88
2018-06-16T06:07:52.246Z,95.75
2018-06-16T06:08:52.175Z,94.93
2018-06-16T06:09:52.259Z,95.55
2018-06-16T06:10:52.130Z,95.17
2018-06-16T06:11:52.173Z,95.07
2018-06-16T06:12:52.086Z,94.49
2018-06-16T06:13:52.186Z,95.55
2018-06-16T06:14:52.045Z,94.78
2018-06-16T06:15:52.119Z,94.69
2018-06-16T06:16:52.002Z,94.98
2018-06-16T06:17:52.008Z,94.21
2018-06-16T06:18:51.958Z,94.69
2018-06-16T06:19:52.025Z,93.44
2018-06-16T06:20:51.915Z,93.63
2018-06-16T06:21:51.939Z,93.34
2018-06-16T06:22:51.879Z,93.34
2018-06-16T06:23:51.951Z,93.73
2018-06-16T06:24:51.832Z,92.77
2018-06-16T06:25:51.862Z,93.49
2018-06-16T06:26:51.796Z,92.72
2018-06-16T06:27:51.878Z,92.43
2018-06-16T06:28:51.749Z,93.58
2018-06-16T06:29:51.789Z,92.14
2018-06-16T06:30:51.712Z,92.62
2018-06-16T06:31:51.804Z,92.14
2018-06-16T06:32:51.665Z,92.14
2018-06-16T06:33:51.715Z,92.05
2018-06-16T06:34:51.613Z,91.66
2018-06-16T06:35:51.729Z,91.47
2018-06-16T06:36:51.583Z,90.31
2018-06-16T06:37:51.640Z,90.31
2018-06-16T06:38:51.539Z,90.89
2018-06-16T06:39:51.655Z,90.45
2018-06-16T06:40:51.499Z,90.60
2018-06-16T06:41:51.567Z,90.60
2018-06-16T06:42:51.455Z,90.70
2018-06-16T06:43:51.579Z,90.84
2018-06-16T06:44:51.414Z,90.60
2018-06-16T06:45:51.493Z,90.26
2018-06-16T06:46:51.371Z,90.65
2018-06-16T06:47:51.509Z,90.55
2018-06-16T06:48:51.337Z,90.80
2018-06-16T06:49:51.418Z,90.17
2018-06-16T06:50:51.290Z,90.36
2018-06-16T06:51:51.330Z,89.69
2018-06-16T06:52:51.249Z,89.78
2018-06-16T06:53:51.343Z,89.11
2018-06-16T06:54:51.204Z,88.82
2018-06-16T06:55:51.259Z,88.24
2018-06-16T06:56:51.165Z,88.67
2018-06-16T06:57:51.278Z,87.96
2018-06-16T06:58:51.128Z,87.96
2018-06-16T06:59:51.182Z,88.44
2018-06-16T07:00:51.081Z,87.76
2018-06-16T07:01:51.201Z,87.71
2018-06-16T07:02:51.044Z,87.76
2018-06-16T07:03:51.108Z,87.48
2018-06-16T07:04:51.000Z,87.09
2018-06-16T07:05:51.028Z,87.38
2018-06-16T07:06:50.957Z,87.23
2018-06-16T07:07:51.041Z,86.08
2018-06-16T07:08:50.919Z,86.27
2018-06-16T07:09:50.900Z,86.56
2018-06-16T07:10:50.967Z,85.78
2018-06-16T07:11:50.858Z,85.40
2018-06-16T07:12:50.869Z,85.50
2018-06-16T07:13:50.872Z,86.08
2018-06-16T07:14:50.796Z,86.65
2018-06-16T07:15:50.774Z,85.60
2018-06-16T07:16:51.266Z,85.21
2018-06-16T07:17:50.736Z,85.60
2018-06-16T07:18:50.807Z,85.88
2018-06-16T07:19:50.692Z,85.78
2018-06-16T07:20:50.719Z,85.02
2018-06-16T07:21:50.652Z,85.60
2018-06-16T07:22:50.730Z,85.16
2018-06-16T07:23:50.613Z,84.00
2018-06-16T07:24:50.644Z,84.48
2018-06-16T07:25:50.572Z,85.74
2018-06-16T07:26:50.657Z,85.35
2018-06-16T07:27:50.532Z,85.16
2018-06-16T07:28:50.566Z,85.54
2018-06-16T07:29:50.496Z,84.58
2018-06-16T07:30:51.510Z,84.58
2018-06-16T07:31:50.459Z,82.98
2018-06-16T07:32:50.495Z,83.47
2018-06-16T07:33:50.415Z,82.89
2018-06-16T07:34:50.508Z,81.63
2018-06-16T07:35:50.373Z,82.31
2018-06-16T07:36:50.419Z,82.79
2018-06-16T07:37:50.331Z,81.63
2018-06-16T07:38:50.355Z,81.45
2018-06-16T07:39:50.292Z,81.06
2018-06-16T07:40:50.344Z,80.63
2018-06-16T07:41:50.253Z,80.54
2018-06-16T07:42:50.257Z,81.12
2018-06-16T07:43:50.213Z,81.45
2018-06-16T07:44:50.273Z,81.93
2018-06-16T07:45:50.176Z,81.93
2018-06-16T07:46:50.181Z,81.63
2018-06-16T07:47:50.135Z,81.54
2018-06-16T07:48:50.260Z,81.77
2018-06-16T07:49:50.094Z,80.71
2018-06-16T07:50:50.113Z,78.40
2018-06-16T07:51:50.056Z,78.46
2018-06-16T07:52:50.126Z,79.71
2018-06-16T07:53:50.016Z,78.94
2018-06-16T07:54:50.038Z,80.58
2018-06-16T07:55:49.978Z,81.25
2018-06-16T07:56:50.114Z,80.48
2018-06-16T07:57:49.940Z,80.10
2018-06-16T07:58:49.962Z,79.75
2018-06-16T07:59:49.899Z,78.46
2018-06-16T08:00:49.975Z,78.69
2018-06-16T08:01:49.853Z,78.79
2018-06-16T08:02:49.950Z,79.36
2018-06-16T08:03:49.821Z,79.56
2018-06-16T08:04:49.901Z,79.17
2018-06-16T08:05:49.783Z,78.50
2018-06-16T08:06:49.816Z,78.06
2018-06-16T08:07:49.745Z,78.06
2018-06-16T08:08:49.828Z,79.21
2018-06-16T08:09:49.706Z,79.50
2018-06-16T08:10:49.741Z,77.86
2018-06-16T08:11:49.666Z,78.38
2018-06-16T08:12:49.790Z,77.81
2018-06-16T08:13:49.628Z,76.45
2018-06-16T08:14:49.666Z,76.07
2018-06-16T08:15:49.593Z,75.88
2018-06-16T08:16:49.681Z,74.72
2018-06-16T08:17:49.557Z,76.75
2018-06-16T08:18:49.594Z,77.13
2018-06-16T08:19:49.521Z,76.75
2018-06-16T08:20:49.607Z,75.78
2018-06-16T08:21:49.478Z,76.01
2018-06-16T08:22:49.516Z,75.05
2018-06-16T08:23:49.439Z,75.53
2018-06-16T08:24:49.530Z,74.76
2018-06-16T08:25:49.404Z,75.72
2018-06-16T08:26:49.444Z,74.95
2018-06-16T08:27:49.365Z,75.14
2018-06-16T08:28:49.462Z,74.47
2018-06-16T08:29:49.328Z,75.72
2018-06-16T08:30:49.367Z,74.51
2018-06-16T08:31:49.291Z,73.73
2018-06-16T08:32:49.386Z,74.79
2018-06-16T08:33:49.255Z,72.77
2018-06-16T08:34:49.374Z,73.93
2018-06-16T08:35:49.218Z,74.31
2018-06-16T08:36:49.321Z,72.80
2018-06-16T08:37:49.188Z,74.16
2018-06-16T08:38:49.220Z,73.67
2018-06-16T08:39:49.143Z,73.67
2018-06-16T08:40:49.239Z,73.71
2018-06-16T08:41:49.124Z,72.16
2018-06-16T08:42:49.146Z,72.64
2018-06-16T08:43:49.071Z,72.16
2018-06-16T08:44:49.167Z,73.42
2018-06-16T08:45:49.036Z,71.81
2018-06-16T08:46:49.071Z,71.52
2018-06-16T08:47:48.998Z,70.94
2018-06-16T08:48:49.086Z,70.65
2018-06-16T08:49:48.966Z,71.04
2018-06-16T08:50:48.997Z,70.36
2018-06-16T08:51:48.928Z,70.04
2018-06-16T08:52:49.011Z,69.74
2018-06-16T08:53:48.894Z,71.88
2018-06-16T08:54:48.924Z,72.97
2018-06-16T08:55:48.872Z,72.49
2018-06-16T08:56:48.937Z,70.26
2018-06-16T08:57:48.824Z,71.33
2018-06-16T08:58:48.849Z,70.88
2018-06-16T08:59:48.788Z,69.24
2018-06-16T09:00:48.864Z,71.08
2018-06-16T09:01:48.756Z,69.14
2018-06-16T09:02:48.776Z,68.46
2018-06-16T09:03:48.717Z,69.27
2018-06-16T09:04:48.789Z,69.75
2018-06-16T09:05:48.686Z,69.17
2018-06-16T09:06:48.701Z,66.95
2018-06-16T09:07:48.649Z,66.75
2018-06-16T09:08:48.716Z,67.05
2018-06-16T09:09:48.617Z,66.17
2018-06-16T09:10:48.627Z,66.66
2018-06-16T09:11:48.580Z,65.98
2018-06-16T09:12:48.642Z,64.92
2018-06-16T09:13:48.546Z,64.69
2018-06-16T09:14:48.552Z,67.05
2018-06-16T09:15:48.518Z,65.17
2018-06-16T09:16:48.568Z,65.95
2018-06-16T09:17:48.481Z,67.33
2018-06-16T09:18:48.481Z,65.27
2018-06-16T09:19:48.444Z,66.05
2018-06-16T09:20:49.518Z,66.63
2018-06-16T09:21:48.422Z,66.95
2018-06-16T09:22:48.508Z,67.14
2018-06-16T09:23:48.399Z,67.18
2018-06-16T09:24:48.424Z,66.11
2018-06-16T09:25:48.346Z,65.08
2018-06-16T09:26:48.439Z,66.14
2018-06-16T09:27:48.314Z,65.30
2018-06-16T09:28:48.347Z,63.85
2018-06-16T09:29:48.278Z,63.59
2018-06-16T09:30:48.364Z,62.43
2018-06-16T09:31:48.258Z,63.53
2018-06-16T09:32:48.271Z,62.26
2018-06-16T09:33:48.212Z,58.09
2018-06-16T09:34:48.283Z,58.67
2018-06-16T09:35:48.181Z,60.42
2018-06-16T09:36:48.201Z,59.36
2018-06-16T09:37:48.147Z,58.45
2018-06-16T09:38:48.214Z,59.52
2018-06-16T09:39:48.114Z,59.69
2018-06-16T09:40:48.126Z,58.91
2018-06-16T09:41:48.082Z,59.97
2018-06-16T09:42:48.142Z,60.85
2018-06-16T09:43:48.056Z,60.49
2018-06-16T09:44:48.052Z,61.36
2018-06-16T09:45:48.024Z,57.78
2018-06-16T09:46:48.067Z,57.48
2018-06-16T09:47:47.991Z,59.03
2018-06-16T09:48:48.080Z,59.42
2018-06-16T09:49:47.953Z,58.45
2018-06-16T09:50:47.990Z,58.45
2018-06-16T09:51:47.928Z,56.81
2018-06-16T09:52:48.004Z,57.51
2018-06-16T09:53:47.892Z,55.31
2018-06-16T09:54:47.916Z,56.28
2018-06-16T09:55:47.861Z,55.99
2018-06-16T09:56:47.933Z,57.08
2018-06-16T09:57:47.829Z,56.79
2018-06-16T09:58:47.843Z,56.70
2018-06-16T09:59:47.804Z,54.14
2018-06-16T10:00:47.857Z,56.47
2018-06-16T10:01:47.771Z,56.60
2018-06-16T10:02:47.769Z,54.94
2018-06-16T10:03:47.737Z,53.59
2018-06-16T10:04:47.785Z,55.73
2018-06-16T10:05:47.709Z,55.36
2018-06-16T10:06:47.794Z,55.07
2018-06-16T10:07:47.676Z,53.91
2018-06-16T10:08:47.708Z,52.74
2018-06-16T10:09:47.648Z,53.52
2018-06-16T10:10:47.722Z,54.20
2018-06-16T10:11:47.616Z,54.20
2018-06-16T10:12:47.637Z,54.10
2018-06-16T10:13:47.589Z,53.03
2018-06-16T10:14:47.647Z,55.46
2018-06-16T10:15:47.558Z,52.67
2018-06-16T10:16:47.558Z,52.28
2018-06-16T10:17:47.529Z,54.52
2018-06-16T10:18:47.573Z,52.09
2018-06-16T10:19:47.500Z,52.69
2018-06-16T10:20:47.589Z,52.67
2018-06-16T10:21:47.471Z,51.79
2018-06-16T10:22:47.507Z,52.74
2018-06-16T10:23:47.441Z,53.81
2018-06-16T10:24:47.515Z,53.61
2018-06-16T10:25:47.415Z,53.49
2018-06-16T10:26:47.427Z,53.97
2018-06-16T10:27:47.384Z,55.63
2018-06-16T10:28:47.439Z,53.69
2018-06-16T10:29:47.354Z,53.78
2018-06-16T10:30:47.456Z,55.33
2018-06-16T10:31:47.390Z,56.11
2018-06-16T10:32:47.366Z,54.36
2018-06-16T10:33:47.300Z,55.99
2018-06-16T10:34:47.383Z,56.28
2018-06-16T10:35:47.272Z,56.15
2018-06-16T10:36:47.292Z,57.42
2018-06-16T10:37:47.241Z,57.42
2018-06-16T10:38:47.305Z,57.22
2018-06-16T10:39:47.214Z,56.45
2018-06-16T10:40:47.220Z,57.00
2018-06-16T10:41:47.185Z,56.51
2018-06-16T10:42:47.231Z,57.39
2018-06-16T10:43:47.157Z,56.97
2018-06-16T10:44:47.245Z,56.87
2018-06-16T10:45:47.124Z,56.77
2018-06-16T10:46:47.155Z,56.68
2018-06-16T10:47:47.101Z,56.71
2018-06-16T10:48:47.171Z,56.23
2018-06-16T10:49:47.068Z,56.32
2018-06-16T10:50:47.085Z,56.71
2018-06-16T10:51:47.038Z,56.13
2018-06-16T10:52:47.097Z,57.68
2018-06-16T10:53:47.005Z,57.45
2018-06-16T10:54:47.009Z,58.23
2018-06-16T10:55:46.979Z,58.23
2018-06-16T10:56:47.025Z,58.55
2018-06-16T10:57:46.946Z,59.33
2018-06-16T10:58:47.036Z,58.84
2018-06-16T10:59:46.918Z,58.65
2018-06-16T11:00:46.949Z,58.19
2018-06-16T11:01:46.888Z,57.00
2018-06-16T11:02:46.964Z,57.51
2018-06-16T11:03:46.858Z,57.78
2018-06-16T11:04:46.876Z,57.39
2018-06-16T11:05:46.827Z,57.68
2018-06-16T11:06:46.890Z,58.65
2018-06-16T11:07:46.795Z,58.14
2018-06-16T11:08:46.800Z,59.39
2018-06-16T11:09:46.769Z,58.78
2018-06-16T11:10:46.818Z,60.04
2018-06-16T11:11:46.737Z,60.33
2018-06-16T11:12:46.829Z,60.33
2018-06-16T11:13:46.705Z,60.36
2018-06-16T11:14:46.741Z,60.20
2018-06-16T11:15:46.675Z,61.46
2018-06-16T11:16:46.757Z,60.32
2018-06-16T11:17:46.649Z,59.55
2018-06-16T11:18:46.668Z,59.36
2018-06-16T11:19:46.615Z,58.51
2018-06-16T11:20:46.681Z,57.42
2018-06-16T11:21:46.583Z,57.12
2018-06-16T11:22:46.594Z,56.83
2018-06-16T11:23:46.555Z,58.39
2018-06-16T11:24:46.607Z,59.48
2018-06-16T11:25:46.526Z,57.54
2018-06-16T11:26:46.634Z,57.12
2018-06-16T11:27:46.496Z,56.83
2018-06-16T11:28:46.532Z,57.12
2018-06-16T11:29:46.465Z,55.96
2018-06-16T11:30:46.547Z,55.96
2018-06-16T11:31:46.439Z,56.93
2018-06-16T11:32:46.458Z,57.00
2018-06-16T11:33:46.406Z,57.68
2018-06-16T11:34:46.474Z,59.42
2018-06-16T11:35:46.376Z,57.68
2018-06-16T11:36:46.385Z,57.19
2018-06-16T11:37:46.347Z,57.09
2018-06-16T11:38:46.399Z,57.51
2018-06-16T11:39:46.317Z,55.96
2018-06-16T11:40:46.415Z,57.15
2018-06-16T11:41:46.289Z,56.18
2018-06-16T11:42:46.324Z,56.79
2018-06-16T11:43:46.258Z,55.53
2018-06-16T11:44:46.340Z,56.04
2018-06-16T11:45:46.230Z,55.75
2018-06-16T11:46:46.250Z,55.29
2018-06-16T11:47:46.201Z,55.39
2018-06-16T11:48:46.272Z,55.29
2018-06-16T11:49:46.173Z,53.54
2018-06-16T11:50:46.176Z,53.54
2018-06-16T11:51:46.142Z,53.67
2018-06-16T11:52:46.196Z,55.22
2018-06-16T11:53:46.112Z,52.14
2018-06-16T11:54:46.209Z,52.43
2018-06-16T11:55:46.086Z,53.50
2018-06-16T11:56:46.121Z,52.72
2018-06-16T11:57:46.060Z,53.62
2018-06-16T11:58:46.133Z,51.07
2018-06-16T11:59:46.028Z,53.08
2018-06-16T12:00:46.047Z,52.76
2018-06-16T12:01:46.001Z,52.76
2018-06-16T12:02:46.068Z,54.71
2018-06-16T12:03:45.973Z,54.03
2018-06-16T12:04:46.071Z,53.91
2018-06-16T12:05:45.946Z,54.97
2018-06-16T12:06:45.987Z,53.71
2018-06-16T12:07:45.920Z,54.17
2018-06-16T12:08:46.008Z,54.36
2018-06-16T12:09:45.891Z,55.31
2018-06-16T12:10:45.908Z,54.34
2018-06-16T12:11:45.863Z,54.70
2018-06-16T12:12:45.926Z,55.08
2018-06-16T12:13:45.838Z,54.99
2018-06-16T12:14:45.938Z,55.50
2018-06-16T12:15:45.809Z,55.41
2018-06-16T12:16:45.852Z,55.60
2018-06-16T12:17:45.781Z,56.18
2018-06-16T12:18:45.866Z,55.73
2018-06-16T12:19:45.753Z,55.17
2018-06-16T12:20:45.778Z,54.42
2018-06-16T12:21:45.727Z,53.54
2018-06-16T12:22:45.791Z,54.22
2018-06-16T12:23:45.700Z,52.98
2018-06-16T12:24:45.803Z,53.77
2018-06-16T12:25:45.671Z,53.89
2018-06-16T12:26:45.718Z,50.09
2018-06-16T12:27:45.643Z,50.99
2018-06-16T12:28:45.730Z,50.41
2018-06-16T12:29:45.634Z,51.61
2018-06-16T12:30:45.640Z,50.82
2018-06-16T12:31:45.587Z,51.90
2018-06-16T12:32:45.653Z,50.36
2018-06-16T12:33:45.564Z,49.85
2018-06-16T12:34:45.565Z,50.07
2018-06-16T12:35:45.538Z,49.29
2018-06-16T12:36:45.580Z,49.10
2018-06-16T12:37:45.511Z,49.56
2018-06-16T12:38:45.595Z,49.27
2018-06-16T12:39:45.524Z,50.53
2018-06-16T12:40:45.506Z,50.73
2018-06-16T12:41:45.457Z,49.85
2018-06-16T12:42:45.521Z,49.37
2018-06-16T12:43:45.433Z,48.85
2018-06-16T12:44:45.432Z,50.31
2018-06-16T12:45:45.406Z,50.99
2018-06-16T12:46:45.444Z,49.92
2018-06-16T12:47:45.387Z,48.75
2018-06-16T12:48:45.460Z,50.04
2018-06-16T12:49:45.358Z,48.39
2018-06-16T12:50:45.375Z,47.42
2018-06-16T12:51:45.331Z,47.71